Terminal Aerodrome Forecast
Issued by NWS

Home | Current Version | Previous Version | Text Only | Print | Product List | Glossary Off
Versions: 1 2 3 4 5 6 7 8 9 10 11 12 13 14 15 16 17 18 19 20 21

000
FTUS43 KUNR 291100
TAFGCC
TAF
KGCC 291120Z 2912/3012 06010KT P6SM OVC008
      TEMPO 2912/2916 3SM -SHRA BR OVC004
     FM291900 17012KT P6SM BKN020
     FM300200 15008KT P6SM OVC010=

USA.gov is the U.S. government's official web portal to all federal, state and local government web resources and services.